createdAt,value
2018-06-03T00:00:42.678Z,1013.51
2018-06-03T00:01:42.661Z,1013.53
2018-06-03T00:02:42.650Z,1013.54
2018-06-03T00:03:42.638Z,1013.53
2018-06-03T00:04:42.619Z,1013.56
2018-06-03T00:05:42.606Z,1013.55
2018-06-03T00:06:42.590Z,1013.56
2018-06-03T00:07:42.582Z,1013.54
2018-06-03T00:08:42.569Z,1013.53
2018-06-03T00:09:42.589Z,1013.54
2018-06-03T00:10:42.544Z,1013.55
2018-06-03T00:11:42.534Z,1013.55
2018-06-03T00:12:42.514Z,1013.55
2018-06-03T00:13:42.496Z,1013.52
2018-06-03T00:14:42.479Z,1013.51
2018-06-03T00:15:42.470Z,1013.54
2018-06-03T00:16:42.456Z,1013.48
2018-06-03T00:17:42.444Z,1013.45
2018-06-03T00:18:42.526Z,1013.43
2018-06-03T00:19:42.419Z,1013.47
2018-06-03T00:20:42.399Z,1013.43
2018-06-03T00:21:42.383Z,1013.42
2018-06-03T00:22:42.370Z,1013.44
2018-06-03T00:23:42.365Z,1013.46
2018-06-03T00:24:42.345Z,1013.44
2018-06-03T00:25:42.329Z,1013.47
2018-06-03T00:26:42.311Z,1013.51
2018-06-03T00:27:42.303Z,1013.50
2018-06-03T00:28:42.290Z,1013.49
2018-06-03T00:29:42.276Z,1013.43
2018-06-03T00:30:42.257Z,1013.45
2018-06-03T00:31:42.245Z,1013.44
2018-06-03T00:32:42.232Z,1013.44
2018-06-03T00:33:42.219Z,1013.44
2018-06-03T00:34:42.202Z,1013.44
2018-06-03T00:35:42.188Z,1013.44
2018-06-03T00:36:42.180Z,1013.44
2018-06-03T00:37:42.166Z,1013.46
2018-06-03T00:38:42.146Z,1013.44
2018-06-03T00:39:42.136Z,1013.41
2018-06-03T00:40:42.120Z,1013.44
2018-06-03T00:41:42.108Z,1013.43
2018-06-03T00:42:42.100Z,1013.41
2018-06-03T00:43:42.076Z,1013.43
2018-06-03T00:44:42.066Z,1013.40
2018-06-03T00:45:42.049Z,1013.42
2018-06-03T00:46:42.036Z,1013.42
2018-06-03T00:47:42.029Z,1013.41
2018-06-03T00:48:42.012Z,1013.43
2018-06-03T00:49:41.998Z,1013.47
2018-06-03T00:50:41.981Z,1013.45
2018-06-03T00:51:41.965Z,1013.47
2018-06-03T00:52:41.956Z,1013.47
2018-06-03T00:53:41.947Z,1013.46
2018-06-03T00:54:41.934Z,1013.44
2018-06-03T00:55:41.913Z,1013.48
2018-06-03T00:56:41.900Z,1013.47
2018-06-03T00:57:41.892Z,1013.46
2018-06-03T00:58:41.909Z,1013.50
2018-06-03T00:59:41.855Z,1013.47
2018-06-03T01:00:41.847Z,1013.52
2018-06-03T01:01:41.835Z,1013.50
2018-06-03T01:02:41.815Z,1013.52
2018-06-03T01:03:41.800Z,1013.54
2018-06-03T01:04:41.786Z,1013.50
2018-06-03T01:05:41.771Z,1013.51
2018-06-03T01:06:41.768Z,1013.55
2018-06-03T01:07:41.742Z,1013.52
2018-06-03T01:08:41.728Z,1013.49
2018-06-03T01:09:41.722Z,1013.53
2018-06-03T01:10:41.711Z,1013.51
2018-06-03T01:11:41.691Z,1013.52
2018-06-03T01:12:41.671Z,1013.49
2018-06-03T01:13:41.660Z,1013.55
2018-06-03T01:14:41.733Z,1013.49
2018-06-03T01:15:41.630Z,1013.51
2018-06-03T01:16:41.617Z,1013.48
2018-06-03T01:17:41.604Z,1013.47
2018-06-03T01:18:41.590Z,1013.46
2018-06-03T01:19:41.577Z,1013.47
2018-06-03T01:20:41.560Z,1013.46
2018-06-03T01:21:41.546Z,1013.48
2018-06-03T01:22:41.535Z,1013.48
2018-06-03T01:23:41.519Z,1013.47
2018-06-03T01:24:41.505Z,1013.45
2018-06-03T01:25:41.491Z,1013.48
2018-06-03T01:26:41.486Z,1013.49
2018-06-03T01:27:41.470Z,1013.50
2018-06-03T01:28:41.448Z,1013.48
2018-06-03T01:29:41.435Z,1013.46
2018-06-03T01:30:41.419Z,1013.47
2018-06-03T01:31:41.413Z,1013.46
2018-06-03T01:32:41.393Z,1013.45
2018-06-03T01:33:41.381Z,1013.46
2018-06-03T01:34:41.366Z,1013.42
2018-06-03T01:35:41.350Z,1013.42
2018-06-03T01:36:41.338Z,1013.42
2018-06-03T01:37:41.323Z,1013.42
2018-06-03T01:38:41.318Z,1013.40
2018-06-03T01:39:41.299Z,1013.39
2018-06-03T01:40:41.290Z,1013.38
2018-06-03T01:41:41.318Z,1013.37
2018-06-03T01:42:41.254Z,1013.37
2018-06-03T01:43:41.237Z,1013.36
2018-06-03T01:44:41.224Z,1013.38
2018-06-03T01:45:41.211Z,1013.34
2018-06-03T01:46:41.193Z,1013.35
2018-06-03T01:47:41.181Z,1013.37
2018-06-03T01:48:41.166Z,1013.37
2018-06-03T01:49:41.152Z,1013.31
2018-06-03T01:50:41.143Z,1013.34
2018-06-03T01:51:41.129Z,1013.31
2018-06-03T01:52:41.156Z,1013.27
2018-06-03T01:53:41.097Z,1013.29
2018-06-03T01:54:41.087Z,1013.27
2018-06-03T01:55:41.072Z,1013.24
2018-06-03T01:56:41.063Z,1013.26
2018-06-03T01:57:41.042Z,1013.27
2018-06-03T01:58:41.026Z,1013.30
2018-06-03T01:59:41.018Z,1013.29
2018-06-03T02:00:41.002Z,1013.26
2018-06-03T02:01:40.988Z,1013.27
2018-06-03T02:02:40.970Z,1013.28
2018-06-03T02:03:40.960Z,1013.26
2018-06-03T02:04:40.957Z,1013.30
2018-06-03T02:05:40.931Z,1013.24
2018-06-03T02:06:40.919Z,1013.30
2018-06-03T02:07:40.899Z,1013.30
2018-06-03T02:08:40.889Z,1013.25
2018-06-03T02:09:40.883Z,1013.29
2018-06-03T02:10:40.938Z,1013.26
2018-06-03T02:11:40.845Z,1013.26
2018-06-03T02:12:40.834Z,1013.24
2018-06-03T02:13:40.818Z,1013.19
2018-06-03T02:14:40.803Z,1013.19
2018-06-03T02:15:40.790Z,1013.20
2018-06-03T02:16:40.778Z,1013.19
2018-06-03T02:17:40.760Z,1013.21
2018-06-03T02:18:40.746Z,1013.21
2018-06-03T02:19:40.734Z,1013.16
2018-06-03T02:20:40.724Z,1013.18
2018-06-03T02:21:40.711Z,1013.20
2018-06-03T02:22:40.691Z,1013.17
2018-06-03T02:23:40.689Z,1013.19
2018-06-03T02:24:40.668Z,1013.16
2018-06-03T02:25:40.653Z,1013.18
2018-06-03T02:26:40.639Z,1013.16
2018-06-03T02:27:40.628Z,1013.14
2018-06-03T02:28:40.610Z,1013.13
2018-06-03T02:29:40.594Z,1013.13
2018-06-03T02:30:40.578Z,1013.12
2018-06-03T02:31:40.571Z,1013.13
2018-06-03T02:32:40.552Z,1013.17
2018-06-03T02:33:40.539Z,1013.17
2018-06-03T02:34:40.527Z,1013.16
2018-06-03T02:35:40.514Z,1013.16
2018-06-03T02:36:40.501Z,1013.14
2018-06-03T02:37:40.484Z,1013.12
2018-06-03T02:38:40.473Z,1013.13
2018-06-03T02:39:40.454Z,1013.13
2018-06-03T02:40:40.450Z,1013.09
2018-06-03T02:41:40.424Z,1013.11
2018-06-03T02:42:40.410Z,1013.12
2018-06-03T02:43:40.403Z,1013.09
2018-06-03T02:44:40.383Z,1013.09
2018-06-03T02:45:40.369Z,1013.09
2018-06-03T02:46:40.361Z,1013.10
2018-06-03T02:47:40.347Z,1013.11
2018-06-03T02:48:40.329Z,1013.10
2018-06-03T02:49:40.327Z,1013.04
2018-06-03T02:50:40.302Z,1013.07
2018-06-03T02:51:40.297Z,1013.08
2018-06-03T02:52:40.270Z,1013.12
2018-06-03T02:53:40.410Z,1013.07
2018-06-03T02:54:40.241Z,1013.11
2018-06-03T02:55:40.234Z,1013.11
2018-06-03T02:56:40.217Z,1013.09
2018-06-03T02:57:40.203Z,1013.11
2018-06-03T02:58:40.187Z,1013.11
2018-06-03T02:59:40.169Z,1013.12
2018-06-03T03:00:40.167Z,1013.14
2018-06-03T03:01:40.144Z,1013.11
2018-06-03T03:02:40.133Z,1013.07
2018-06-03T03:03:40.124Z,1013.05
2018-06-03T03:04:40.100Z,1013.05
2018-06-03T03:05:40.085Z,1013.07
2018-06-03T03:06:40.076Z,1013.05
2018-06-03T03:07:40.062Z,1013.06
2018-06-03T03:08:40.050Z,1013.07
2018-06-03T03:09:40.038Z,1013.08
2018-06-03T03:10:40.021Z,1013.08
2018-06-03T03:11:40.003Z,1013.08
2018-06-03T03:12:39.991Z,1013.08
2018-06-03T03:13:39.980Z,1013.13
2018-06-03T03:14:39.961Z,1013.11
2018-06-03T03:15:39.956Z,1013.15
2018-06-03T03:16:39.940Z,1013.15
2018-06-03T03:17:39.923Z,1013.19
2018-06-03T03:18:39.916Z,1013.19
2018-06-03T03:19:39.899Z,1013.19
2018-06-03T03:20:39.931Z,1013.20
2018-06-03T03:21:39.867Z,1013.16
2018-06-03T03:22:39.846Z,1013.18
2018-06-03T03:23:39.835Z,1013.19
2018-06-03T03:24:39.819Z,1013.23
2018-06-03T03:25:39.810Z,1013.22
2018-06-03T03:26:39.790Z,1013.22
2018-06-03T03:27:39.777Z,1013.23
2018-06-03T03:28:39.765Z,1013.24
2018-06-03T03:29:39.747Z,1013.25
2018-06-03T03:30:39.741Z,1013.19
2018-06-03T03:31:39.720Z,1013.21
2018-06-03T03:32:39.709Z,1013.20
2018-06-03T03:33:39.694Z,1013.20
2018-06-03T03:34:39.687Z,1013.16
2018-06-03T03:35:39.669Z,1013.18
2018-06-03T03:36:39.756Z,1013.21
2018-06-03T03:37:39.641Z,1013.21
2018-06-03T03:38:39.625Z,1013.21
2018-06-03T03:39:39.611Z,1013.20
2018-06-03T03:40:39.594Z,1013.22
2018-06-03T03:41:39.582Z,1013.24
2018-06-03T03:42:39.566Z,1013.20
2018-06-03T03:43:39.557Z,1013.21
2018-06-03T03:44:39.540Z,1013.19
2018-06-03T03:45:39.532Z,1013.18
2018-06-03T03:46:39.510Z,1013.16
2018-06-03T03:47:39.496Z,1013.15
2018-06-03T03:48:39.488Z,1013.13
2018-06-03T03:49:39.469Z,1013.14
2018-06-03T03:50:39.457Z,1013.13
2018-06-03T03:51:39.442Z,1013.17
2018-06-03T03:52:39.436Z,1013.17
2018-06-03T03:53:39.413Z,1013.16
2018-06-03T03:54:39.399Z,1013.14
2018-06-03T03:55:39.591Z,1013.14
2018-06-03T03:56:39.372Z,1013.13
2018-06-03T03:57:39.364Z,1013.17
2018-06-03T03:58:39.343Z,1013.16
2018-06-03T03:59:39.330Z,1013.17
2018-06-03T04:00:39.314Z,1013.15
2018-06-03T04:01:39.302Z,1013.13
2018-06-03T04:02:39.287Z,1013.13
2018-06-03T04:03:39.377Z,1013.15
2018-06-03T04:04:39.255Z,1013.17
2018-06-03T04:05:39.241Z,1013.18
2018-06-03T04:06:39.238Z,1013.20
2018-06-03T04:07:39.218Z,1013.21
2018-06-03T04:08:39.211Z,1013.21
2018-06-03T04:09:39.185Z,1013.19
2018-06-03T04:10:39.173Z,1013.22
2018-06-03T04:11:39.157Z,1013.19
2018-06-03T04:12:39.145Z,1013.20
2018-06-03T04:13:39.131Z,1013.20
2018-06-03T04:14:39.121Z,1013.20
2018-06-03T04:15:39.111Z,1013.19
2018-06-03T04:16:39.094Z,1013.19
2018-06-03T04:17:39.076Z,1013.22
2018-06-03T04:18:39.059Z,1013.22
2018-06-03T04:19:39.149Z,1013.23
2018-06-03T04:20:39.032Z,1013.22
2018-06-03T04:21:39.022Z,1013.22
2018-06-03T04:22:39.004Z,1013.23
2018-06-03T04:23:38.989Z,1013.22
2018-06-03T04:24:38.981Z,1013.23
2018-06-03T04:25:38.964Z,1013.19
2018-06-03T04:26:38.949Z,1013.25
2018-06-03T04:27:38.936Z,1013.22
2018-06-03T04:28:38.935Z,1013.25
2018-06-03T04:29:38.909Z,1013.26
2018-06-03T04:30:38.894Z,1013.25
2018-06-03T04:31:38.881Z,1013.24
2018-06-03T04:32:38.867Z,1013.28
2018-06-03T04:33:38.849Z,1013.23
2018-06-03T04:34:38.852Z,1013.26
2018-06-03T04:35:38.830Z,1013.23
2018-06-03T04:36:38.809Z,1013.27
2018-06-03T04:37:38.798Z,1013.28
2018-06-03T04:38:38.884Z,1013.27
2018-06-03T04:39:38.766Z,1013.25
2018-06-03T04:40:38.752Z,1013.32
2018-06-03T04:41:38.740Z,1013.34
2018-06-03T04:42:38.734Z,1013.33
2018-06-03T04:43:38.709Z,1013.34
2018-06-03T04:44:38.703Z,1013.36
2018-06-03T04:45:38.687Z,1013.36
2018-06-03T04:46:38.720Z,1013.37
2018-06-03T04:47:38.656Z,1013.36
2018-06-03T04:48:38.642Z,1013.37
2018-06-03T04:49:38.628Z,1013.35
2018-06-03T04:50:38.618Z,1013.38
2018-06-03T04:51:38.600Z,1013.39
2018-06-03T04:52:38.594Z,1013.38
2018-06-03T04:53:38.573Z,1013.41
2018-06-03T04:54:38.559Z,1013.40
2018-06-03T04:55:38.545Z,1013.40
2018-06-03T04:56:38.529Z,1013.40
2018-06-03T04:57:38.520Z,1013.41
2018-06-03T04:58:38.501Z,1013.43
2018-06-03T04:59:38.541Z,1013.43
2018-06-03T05:00:38.475Z,1013.45
2018-06-03T05:01:38.466Z,1013.44
2018-06-03T05:02:38.503Z,1013.47
2018-06-03T05:03:38.434Z,1013.50
2018-06-03T05:04:38.419Z,1013.52
2018-06-03T05:05:38.405Z,1013.52
2018-06-03T05:06:38.430Z,1013.50
2018-06-03T05:07:38.379Z,1013.50
2018-06-03T05:08:38.362Z,1013.51
2018-06-03T05:09:38.350Z,1013.49
2018-06-03T05:10:38.338Z,1013.47
2018-06-03T05:11:38.330Z,1013.48
2018-06-03T05:12:38.312Z,1013.47
2018-06-03T05:13:38.347Z,1013.49
2018-06-03T05:14:38.287Z,1013.48
2018-06-03T05:15:38.274Z,1013.53
2018-06-03T05:16:38.308Z,1013.51
2018-06-03T05:17:38.241Z,1013.51
2018-06-03T05:18:38.225Z,1013.53
2018-06-03T05:19:38.224Z,1013.54
2018-06-03T05:20:38.200Z,1013.52
2018-06-03T05:21:38.190Z,1013.51
2018-06-03T05:22:38.372Z,1013.56
2018-06-03T05:23:38.159Z,1013.54
2018-06-03T05:24:38.145Z,1013.55
2018-06-03T05:25:38.130Z,1013.51
2018-06-03T05:26:38.117Z,1013.50
2018-06-03T05:27:38.106Z,1013.52
2018-06-03T05:28:38.092Z,1013.51
2018-06-03T05:29:38.075Z,1013.53
2018-06-03T05:30:38.062Z,1013.54
2018-06-03T05:31:38.047Z,1013.54
2018-06-03T05:32:38.040Z,1013.55
2018-06-03T05:33:38.023Z,1013.59
2018-06-03T05:34:38.113Z,1013.58
2018-06-03T05:35:37.997Z,1013.55
2018-06-03T05:36:37.979Z,1013.54
2018-06-03T05:37:37.969Z,1013.58
2018-06-03T05:38:37.951Z,1013.57
2018-06-03T05:39:37.937Z,1013.57
2018-06-03T05:40:37.931Z,1013.58
2018-06-03T05:41:37.912Z,1013.63
2018-06-03T05:42:37.897Z,1013.64
2018-06-03T05:43:37.882Z,1013.62
2018-06-03T05:44:37.870Z,1013.64
2018-06-03T05:45:37.856Z,1013.66
2018-06-03T05:46:37.840Z,1013.64
2018-06-03T05:47:37.866Z,1013.62
2018-06-03T05:48:37.816Z,1013.64
2018-06-03T05:49:37.800Z,1013.64
2018-06-03T05:50:37.890Z,1013.62
2018-06-03T05:51:37.771Z,1013.61
2018-06-03T05:52:37.760Z,1013.66
2018-06-03T05:53:37.744Z,1013.70
2018-06-03T05:54:37.730Z,1013.66
2018-06-03T05:55:37.769Z,1013.72
2018-06-03T05:56:37.704Z,1013.73
2018-06-03T05:57:37.689Z,1013.74
2018-06-03T05:58:37.680Z,1013.72
2018-06-03T05:59:37.667Z,1013.74
2018-06-03T06:00:37.651Z,1013.74
2018-06-03T06:01:37.639Z,1013.73
2018-06-03T06:02:37.628Z,1013.74
2018-06-03T06:03:37.612Z,1013.79
2018-06-03T06:04:37.597Z,1013.78
2018-06-03T06:05:37.590Z,1013.81
2018-06-03T06:06:37.575Z,1013.78
2018-06-03T06:07:37.561Z,1013.78
2018-06-03T06:08:37.542Z,1013.82
2018-06-03T06:09:37.527Z,1013.79
2018-06-03T06:10:37.517Z,1013.77
2018-06-03T06:11:37.662Z,1013.84
2018-06-03T06:12:37.487Z,1013.79
2018-06-03T06:13:37.473Z,1013.82
2018-06-03T06:14:37.457Z,1013.81
2018-06-03T06:15:37.449Z,1013.85
2018-06-03T06:16:37.431Z,1013.83
2018-06-03T06:17:37.434Z,1013.84
2018-06-03T06:18:37.405Z,1013.82
2018-06-03T06:19:37.389Z,1013.82
2018-06-03T06:20:37.380Z,1013.84
2018-06-03T06:21:37.365Z,1013.87
2018-06-03T06:22:37.349Z,1013.89
2018-06-03T06:23:37.334Z,1013.89
2018-06-03T06:24:37.320Z,1013.90
2018-06-03T06:25:37.309Z,1013.88
2018-06-03T06:26:37.309Z,1013.90
2018-06-03T06:27:37.287Z,1013.89
2018-06-03T06:28:37.273Z,1013.91
2018-06-03T06:29:37.258Z,1013.93
2018-06-03T06:30:37.272Z,1013.89
2018-06-03T06:31:37.270Z,1013.89
2018-06-03T06:32:37.213Z,1013.86
2018-06-03T06:33:37.255Z,1013.90
2018-06-03T06:34:37.186Z,1013.89
2018-06-03T06:35:37.174Z,1013.85
2018-06-03T06:36:37.162Z,1013.91
2018-06-03T06:37:37.150Z,1013.89
2018-06-03T06:38:37.126Z,1013.91
2018-06-03T06:39:37.116Z,1013.93
2018-06-03T06:40:37.102Z,1013.96
2018-06-03T06:41:37.123Z,1013.98
2018-06-03T06:42:37.089Z,1013.97
2018-06-03T06:43:37.064Z,1014.01
2018-06-03T06:44:37.050Z,1013.97
2018-06-03T06:45:37.042Z,1013.99
2018-06-03T06:46:37.021Z,1014.00
2018-06-03T06:47:37.011Z,1014.01
2018-06-03T06:48:36.995Z,1014.02
2018-06-03T06:49:36.982Z,1014.02
2018-06-03T06:50:36.976Z,1014.03
2018-06-03T06:51:36.958Z,1014.03
2018-06-03T06:52:36.943Z,1014.06
2018-06-03T06:53:36.934Z,1014.03
2018-06-03T06:54:36.923Z,1014.06
2018-06-03T06:55:36.900Z,1014.11
2018-06-03T06:56:36.888Z,1014.10
2018-06-03T06:57:36.878Z,1014.10
2018-06-03T06:58:36.859Z,1014.13
2018-06-03T06:59:36.850Z,1014.11
2018-06-03T07:00:36.838Z,1014.10
2018-06-03T07:01:36.821Z,1014.14
2018-06-03T07:02:36.853Z,1014.12
2018-06-03T07:03:36.803Z,1014.15
2018-06-03T07:04:36.805Z,1014.18
2018-06-03T07:05:36.767Z,1014.18
2018-06-03T07:06:36.862Z,1014.20
2018-06-03T07:07:36.744Z,1014.17
2018-06-03T07:08:36.728Z,1014.18
2018-06-03T07:09:36.714Z,1014.18
2018-06-03T07:10:36.702Z,1014.18
2018-06-03T07:11:36.693Z,1014.16
2018-06-03T07:12:36.673Z,1014.17
2018-06-03T07:13:36.762Z,1014.19
2018-06-03T07:14:36.651Z,1014.17
2018-06-03T07:15:36.638Z,1014.21
2018-06-03T07:16:36.619Z,1014.21
2018-06-03T07:17:36.610Z,1014.23
2018-06-03T07:18:36.599Z,1014.20
2018-06-03T07:19:36.582Z,1014.21
2018-06-03T07:20:36.576Z,1014.22
2018-06-03T07:21:36.557Z,1014.19
2018-06-03T07:22:36.541Z,1014.20
2018-06-03T07:23:36.526Z,1014.22
2018-06-03T07:24:36.517Z,1014.21
2018-06-03T07:25:36.502Z,1014.19
2018-06-03T07:26:36.486Z,1014.17
2018-06-03T07:27:36.477Z,1014.18
2018-06-03T07:28:36.463Z,1014.17
2018-06-03T07:29:36.551Z,1014.19
2018-06-03T07:30:36.436Z,1014.16
2018-06-03T07:31:36.423Z,1014.17
2018-06-03T07:32:36.408Z,1014.16
2018-06-03T07:33:36.410Z,1014.18
2018-06-03T07:34:36.385Z,1014.19
2018-06-03T07:35:36.366Z,1014.20
2018-06-03T07:36:36.354Z,1014.16
2018-06-03T07:37:36.347Z,1014.19
2018-06-03T07:38:36.328Z,1014.21
2018-06-03T07:39:36.314Z,1014.22
2018-06-03T07:40:36.307Z,1014.19
2018-06-03T07:41:36.289Z,1014.22
2018-06-03T07:42:36.279Z,1014.20
2018-06-03T07:43:36.287Z,1014.22
2018-06-03T07:44:36.260Z,1014.22
2018-06-03T07:45:36.237Z,1014.24
2018-06-03T07:46:36.220Z,1014.23
2018-06-03T07:47:36.209Z,1014.27
2018-06-03T07:48:36.200Z,1014.25
2018-06-03T07:49:36.190Z,1014.27
2018-06-03T07:50:36.177Z,1014.25
2018-06-03T07:51:36.163Z,1014.26
2018-06-03T07:52:36.149Z,1014.27
2018-06-03T07:53:36.135Z,1014.27
2018-06-03T07:54:36.119Z,1014.25
2018-06-03T07:55:36.102Z,1014.24
2018-06-03T07:56:36.090Z,1014.25
2018-06-03T07:57:36.075Z,1014.25
2018-06-03T07:58:36.073Z,1014.20
2018-06-03T07:59:36.046Z,1014.28
2018-06-03T08:00:36.032Z,1014.22
2018-06-03T08:01:36.019Z,1014.25
2018-06-03T08:02:36.010Z,1014.23
2018-06-03T08:03:36.007Z,1014.22
2018-06-03T08:04:35.979Z,1014.22
2018-06-03T08:05:35.966Z,1014.26
2018-06-03T08:06:35.959Z,1014.24
2018-06-03T08:07:35.947Z,1014.24
2018-06-03T08:08:35.931Z,1014.24
2018-06-03T08:09:36.068Z,1014.27
2018-06-03T08:10:35.900Z,1014.24
2018-06-03T08:11:35.898Z,1014.23
2018-06-03T08:12:35.879Z,1014.19
2018-06-03T08:13:35.867Z,1014.21
2018-06-03T08:14:35.855Z,1014.17
2018-06-03T08:15:35.843Z,1014.17
2018-06-03T08:16:35.831Z,1014.15
2018-06-03T08:17:35.818Z,1014.16
2018-06-03T08:18:35.798Z,1014.16
2018-06-03T08:19:35.784Z,1014.20
2018-06-03T08:20:35.774Z,1014.17
2018-06-03T08:21:35.759Z,1014.20
2018-06-03T08:22:35.758Z,1014.16
2018-06-03T08:23:35.729Z,1014.20
2018-06-03T08:24:35.719Z,1014.22
2018-06-03T08:25:35.811Z,1014.20
2018-06-03T08:26:35.700Z,1014.23
2018-06-03T08:27:35.683Z,1014.19
2018-06-03T08:28:35.689Z,1014.18
2018-06-03T08:29:35.652Z,1014.19
2018-06-03T08:30:35.638Z,1014.18
2018-06-03T08:31:35.641Z,1014.17
2018-06-03T08:32:35.617Z,1014.19
2018-06-03T08:33:35.599Z,1014.19
2018-06-03T08:34:35.594Z,1014.18
2018-06-03T08:35:35.572Z,1014.20
2018-06-03T08:36:35.570Z,1014.14
2018-06-03T08:37:35.548Z,1014.20
2018-06-03T08:38:35.535Z,1014.18
2018-06-03T08:39:35.519Z,1014.16
2018-06-03T08:40:35.515Z,1014.19
2018-06-03T08:41:35.493Z,1014.18
2018-06-03T08:42:35.478Z,1014.21
2018-06-03T08:43:35.480Z,1014.19
2018-06-03T08:44:35.451Z,1014.16
2018-06-03T08:45:35.444Z,1014.14
2018-06-03T08:46:35.431Z,1014.16
2018-06-03T08:47:35.422Z,1014.18
2018-06-03T08:48:35.406Z,1014.21
2018-06-03T08:49:35.441Z,1014.20
2018-06-03T08:50:35.371Z,1014.21
2018-06-03T08:51:35.360Z,1014.22
2018-06-03T08:52:35.346Z,1014.23
2018-06-03T08:53:35.332Z,1014.22
2018-06-03T08:54:35.316Z,1014.22
2018-06-03T08:55:35.312Z,1014.25
2018-06-03T08:56:35.301Z,1014.22
2018-06-03T08:57:35.277Z,1014.24
2018-06-03T08:58:35.277Z,1014.26
2018-06-03T08:59:35.258Z,1014.25
2018-06-03T09:00:35.240Z,1014.22
2018-06-03T09:01:35.228Z,1014.23
2018-06-03T09:02:35.218Z,1014.21
2018-06-03T09:03:35.199Z,1014.21
2018-06-03T09:04:35.190Z,1014.22
2018-06-03T09:05:35.237Z,1014.24
2018-06-03T09:06:35.164Z,1014.24
2018-06-03T09:07:35.148Z,1014.22
2018-06-03T09:08:35.136Z,1014.26
2018-06-03T09:09:35.121Z,1014.22
2018-06-03T09:10:35.111Z,1014.27
2018-06-03T09:11:35.093Z,1014.26
2018-06-03T09:12:35.084Z,1014.26
2018-06-03T09:13:35.064Z,1014.26
2018-06-03T09:14:35.050Z,1014.27
2018-06-03T09:15:35.042Z,1014.23
2018-06-03T09:16:35.029Z,1014.24
2018-06-03T09:17:35.028Z,1014.25
2018-06-03T09:18:35.013Z,1014.26
2018-06-03T09:19:34.985Z,1014.27
2018-06-03T09:20:34.983Z,1014.27
2018-06-03T09:21:34.962Z,1014.25
2018-06-03T09:22:34.941Z,1014.26
2018-06-03T09:23:34.930Z,1014.28
2018-06-03T09:24:34.929Z,1014.27
2018-06-03T09:25:34.911Z,1014.26
2018-06-03T09:26:34.900Z,1014.27
2018-06-03T09:27:34.882Z,1014.27
2018-06-03T09:28:34.860Z,1014.25
2018-06-03T09:29:34.862Z,1014.31
2018-06-03T09:30:34.841Z,1014.30
2018-06-03T09:31:34.820Z,1014.31
2018-06-03T09:32:34.806Z,1014.29
2018-06-03T09:33:34.809Z,1014.26
2018-06-03T09:34:34.827Z,1014.27
2018-06-03T09:35:34.769Z,1014.27
2018-06-03T09:36:34.756Z,1014.24
2018-06-03T09:37:34.747Z,1014.26
2018-06-03T09:38:34.737Z,1014.23
2018-06-03T09:39:34.728Z,1014.27
2018-06-03T09:40:34.699Z,1014.30
2018-06-03T09:41:34.704Z,1014.35
2018-06-03T09:42:34.677Z,1014.30
2018-06-03T09:43:34.670Z,1014.29
2018-06-03T09:44:34.672Z,1014.28
2018-06-03T09:45:34.637Z,1014.22
2018-06-03T09:46:34.631Z,1014.25
2018-06-03T09:47:34.608Z,1014.23
2018-06-03T09:48:34.710Z,1014.23
2018-06-03T09:49:34.589Z,1014.23
2018-06-03T09:50:34.576Z,1014.25
2018-06-03T09:51:34.557Z,1014.33
2018-06-03T09:52:34.541Z,1014.31
2018-06-03T09:53:34.530Z,1014.26
2018-06-03T09:54:34.515Z,1014.25
2018-06-03T09:55:34.507Z,1014.24
2018-06-03T09:56:34.492Z,1014.32
2018-06-03T09:57:34.478Z,1014.19
2018-06-03T09:58:34.471Z,1014.19
2018-06-03T09:59:34.450Z,1014.20
2018-06-03T10:00:34.446Z,1014.15
2018-06-03T10:01:34.430Z,1014.14
2018-06-03T10:02:34.421Z,1014.12
2018-06-03T10:03:34.402Z,1014.15
2018-06-03T10:04:34.439Z,1014.05
2018-06-03T10:05:34.375Z,1014.13
2018-06-03T10:06:34.369Z,1014.10
2018-06-03T10:07:34.349Z,1014.06
2018-06-03T10:08:34.336Z,1014.13
2018-06-03T10:09:34.330Z,1014.06
2018-06-03T10:10:34.329Z,1014.06
2018-06-03T10:11:34.298Z,1014.00
2018-06-03T10:12:34.294Z,1013.98
2018-06-03T10:13:34.272Z,1013.96
2018-06-03T10:14:34.269Z,1013.93
2018-06-03T10:15:34.249Z,1013.96
2018-06-03T10:16:34.243Z,1013.93
2018-06-03T10:17:34.330Z,1013.97
2018-06-03T10:18:34.209Z,1013.95
2018-06-03T10:19:34.201Z,1013.98
2018-06-03T10:20:34.197Z,1013.94
2018-06-03T10:21:34.237Z,1013.96
2018-06-03T10:22:34.171Z,1013.97
2018-06-03T10:23:34.146Z,1013.96
2018-06-03T10:24:34.139Z,1013.99
2018-06-03T10:25:34.184Z,1014.01
2018-06-03T10:26:34.116Z,1013.95
2018-06-03T10:27:34.098Z,1013.99
2018-06-03T10:28:34.091Z,1013.96
2018-06-03T10:29:34.082Z,1013.97
2018-06-03T10:30:34.062Z,1013.96
2018-06-03T10:31:34.059Z,1013.98
2018-06-03T10:32:34.038Z,1013.95
2018-06-03T10:33:34.042Z,1013.98
2018-06-03T10:34:34.013Z,1013.95
2018-06-03T10:35:33.996Z,1013.96
2018-06-03T10:36:33.996Z,1014.01
2018-06-03T10:37:33.973Z,1014.00
2018-06-03T10:38:33.971Z,1014.00
2018-06-03T10:39:33.956Z,1014.03
2018-06-03T10:40:33.935Z,1013.98
2018-06-03T10:41:33.925Z,1014.04
2018-06-03T10:42:33.908Z,1014.00
2018-06-03T10:43:33.904Z,1014.01
2018-06-03T10:44:33.936Z,1014.02
2018-06-03T10:45:33.871Z,1014.10
2018-06-03T10:46:33.864Z,1014.10
2018-06-03T10:47:33.851Z,1014.09
2018-06-03T10:48:33.845Z,1014.12
2018-06-03T10:49:33.830Z,1014.08
2018-06-03T10:50:33.822Z,1014.10
2018-06-03T10:51:33.816Z,1014.10
2018-06-03T10:52:33.795Z,1014.10
2018-06-03T10:53:33.777Z,1014.12
2018-06-03T10:54:33.818Z,1014.06
2018-06-03T10:55:33.752Z,1014.07
2018-06-03T10:56:33.750Z,1014.11
2018-06-03T10:57:33.778Z,1014.10
2018-06-03T10:58:33.710Z,1014.08
2018-06-03T10:59:33.708Z,1014.03
2018-06-03T11:00:33.701Z,1014.03
2018-06-03T11:01:33.679Z,1014.01
2018-06-03T11:02:33.690Z,1013.99
2018-06-03T11:03:33.654Z,1013.93
2018-06-03T11:04:33.639Z,1013.96
2018-06-03T11:05:33.657Z,1013.95
2018-06-03T11:06:33.625Z,1013.95
2018-06-03T11:07:33.612Z,1013.96
2018-06-03T11:08:33.596Z,1013.96
2018-06-03T11:09:33.595Z,1013.94
2018-06-03T11:10:33.725Z,1013.95
2018-06-03T11:11:33.569Z,1013.93
2018-06-03T11:12:33.546Z,1013.94
2018-06-03T11:13:33.534Z,1013.98
2018-06-03T11:14:33.530Z,1013.91
2018-06-03T11:15:33.510Z,1013.91
2018-06-03T11:16:33.518Z,1013.90
2018-06-03T11:17:33.492Z,1013.90
2018-06-03T11:18:33.474Z,1013.91
2018-06-03T11:19:33.462Z,1013.87
2018-06-03T11:20:33.453Z,1013.89
2018-06-03T11:21:33.570Z,1013.90
2018-06-03T11:22:33.427Z,1013.90
2018-06-03T11:23:33.421Z,1013.91
2018-06-03T11:24:33.412Z,1013.93
2018-06-03T11:25:33.407Z,1013.86
2018-06-03T11:26:33.390Z,1013.84
2018-06-03T11:27:33.423Z,1013.85
2018-06-03T11:28:33.358Z,1013.83
2018-06-03T11:29:33.352Z,1013.82
2018-06-03T11:30:33.339Z,1013.88
2018-06-03T11:31:33.338Z,1013.88
2018-06-03T11:32:33.325Z,1013.85
2018-06-03T11:33:33.295Z,1013.83
2018-06-03T11:34:33.294Z,1013.85
2018-06-03T11:35:33.272Z,1013.90
2018-06-03T11:36:33.273Z,1013.89
2018-06-03T11:37:33.305Z,1013.88
2018-06-03T11:38:33.246Z,1013.76
2018-06-03T11:39:33.232Z,1013.76
2018-06-03T11:40:33.328Z,1013.77
2018-06-03T11:41:33.221Z,1013.75
2018-06-03T11:42:33.202Z,1013.79
2018-06-03T11:43:33.186Z,1013.75
2018-06-03T11:44:33.169Z,1013.77
2018-06-03T11:45:33.163Z,1013.86
2018-06-03T11:46:33.155Z,1013.77
2018-06-03T11:47:33.130Z,1013.70
2018-06-03T11:48:33.122Z,1013.67
2018-06-03T11:49:33.128Z,1013.70
2018-06-03T11:50:33.096Z,1013.70
2018-06-03T11:51:33.124Z,1013.80
2018-06-03T11:52:33.073Z,1013.78
2018-06-03T11:53:33.073Z,1013.82
2018-06-03T11:54:33.065Z,1013.81
2018-06-03T11:55:33.043Z,1013.82
2018-06-03T11:56:33.024Z,1013.86
2018-06-03T11:57:33.020Z,1013.83
2018-06-03T11:58:32.999Z,1013.87
2018-06-03T11:59:32.989Z,1013.88
2018-06-03T12:00:32.980Z,1013.89
2018-06-03T12:01:32.970Z,1013.88
2018-06-03T12:02:32.951Z,1013.91
2018-06-03T12:03:33.011Z,1013.87
2018-06-03T12:04:32.944Z,1013.84
2018-06-03T12:05:32.917Z,1013.85